Pagrindinis puslapis
METAR-TAF:

METAR-TAF

Oro uostai :

Džeksonvilis, Florida, Jungtinės Amerikos Valstijos

platuma: 30-29-40N, ilguma: 081-41-36W, Aukštis: 9 m

Dabartinis oras

Ataskaita buvo paskelbta 38 minutes, ne 17:56 UTC
Vėjas 5 kt iš Vakarų
Temperatūra 23°C
Drėgmė 38%
Slėgis 1013 hPa
Matomumas: 16.1 km
Su prošvaistėmis ne aukštis 25000 ft

METAR: KJAX 171756Z 26005KT 10SM BKN250 23/08 A2992 RMK AO2 SLP132 T02280078 10233 20139 58019

Laikas: 14:34 (18:34 UTC)

Prognozė

Ataskaita buvo paskelbta 1 valandą ir 14 minutes, ne 17:20 UTC
Prognozė galioja nuo 17 metu 18 UTC su 18 metu 18 UTC
Vėjas 6 kt iš Šiaurės/Šiaurės Vakarų
Matomumas: 10 km
Su prošvaistėmis ne aukštis 25000 ft
Nuo 17 metu 2300 UTC
Vėjas 3 kt nuo kintamojo kryptimis
Matomumas: 10 km
Apsiniaukę ne aukštis 25000 ft
Nuo 18 metu 1500 UTC
Vėjas 7 kt iš Rytų
Matomumas: 10 km
Su prošvaistėmis ne aukštis 10000 ft
Apsiniaukę ne aukštis 25000 ft

TAF: KJAX 171720Z 1718/1818 33006KT P6SM BKN250 FM172300 VRB03KT P6SM OVC250 FM181500 08007KT P6SM BKN100 OVC250

Orai ataskaitas ir orų prognozės (METAR, TAF).

turimą stotys yra geltonos ir raudonos taškus žemėlapyje.

Perkelti pele per norėdami pamatyti stoties vardą.

Tada spustelėkite, norėdami matyti oro stebėjimo ir prognozės.

Norėdami pakeisti žemėlapį: spustelėkite ant žalios mygtukų su juodo kryžiaus žemyn,; žalią mygtuką su brūkšneliu, jei norite nutolinti; arba žalių rodyklių gretimoms žemėlapius.


METAR-TAF: